createdAt,value
2022-12-15T00:02:59.922Z,-7.80
2022-12-15T00:06:07.075Z,-7.80
2022-12-15T00:09:14.414Z,-7.90
2022-12-15T00:12:21.167Z,-7.90
2022-12-15T00:15:27.808Z,-7.90
2022-12-15T00:18:33.704Z,-7.90
2022-12-15T00:21:40.913Z,-7.90
2022-12-15T00:24:49.724Z,-8.00
2022-12-15T00:27:55.569Z,-8.10
2022-12-15T00:31:02.728Z,-8.10
2022-12-15T00:34:08.968Z,-8.10
2022-12-15T00:37:16.087Z,-8.30
2022-12-15T00:40:05.430Z,-8.40
2022-12-15T00:42:53.785Z,-8.40
2022-12-15T00:46:04.041Z,-8.50
2022-12-15T00:48:52.846Z,-8.40
2022-12-15T00:51:58.563Z,-8.40
2022-12-15T00:55:05.994Z,-8.40
2022-12-15T00:58:12.275Z,-8.50
2022-12-15T01:01:24.895Z,-8.50
2022-12-15T01:04:30.704Z,-8.50
2022-12-15T01:07:36.591Z,-8.50
2022-12-15T01:10:44.233Z,-8.50
2022-12-15T01:13:50.062Z,-8.50
2022-12-15T01:16:56.083Z,-8.50
2022-12-15T01:20:02.072Z,-8.50
2022-12-15T01:22:52.961Z,-8.60
2022-12-15T01:25:42.683Z,-8.60
2022-12-15T01:28:31.263Z,-8.60
2022-12-15T01:31:19.751Z,-8.60
2022-12-15T01:34:08.095Z,-8.60
2022-12-15T01:36:56.493Z,-8.60
2022-12-15T01:40:02.167Z,-8.70
2022-12-15T01:42:52.312Z,-8.70
2022-12-15T01:45:55.991Z,-8.60
2022-12-15T01:48:48.142Z,-8.60
2022-12-15T01:51:40.678Z,-8.60
2022-12-15T01:54:32.186Z,-8.60
2022-12-15T01:57:26.412Z,-8.60
2022-12-15T02:00:16.875Z,-8.60
2022-12-15T02:03:07.083Z,-8.50
2022-12-15T02:05:56.354Z,-8.50
2022-12-15T02:08:48.267Z,-8.60
2022-12-15T02:12:11.818Z,-8.70
2022-12-15T02:15:12.896Z,-8.70
2022-12-15T02:18:11.419Z,-8.60
2022-12-15T02:21:03.446Z,-8.70
2022-12-15T02:24:25.380Z,-8.60
2022-12-15T02:27:41.184Z,-8.60
2022-12-15T02:30:44.636Z,-8.60
2022-12-15T02:33:34.724Z,-8.60
2022-12-15T02:36:29.756Z,-8.50
2022-12-15T02:39:19.618Z,-8.50
2022-12-15T02:42:08.008Z,-8.50
2022-12-15T02:45:00.553Z,-8.50
2022-12-15T02:48:04.284Z,-8.50
2022-12-15T02:51:08.480Z,-8.50
2022-12-15T02:54:19.308Z,-8.50
2022-12-15T02:57:17.340Z,-8.50
2022-12-15T03:00:08.499Z,-8.50
2022-12-15T03:02:58.190Z,-8.60
2022-12-15T03:05:46.779Z,-8.70
2022-12-15T03:08:35.099Z,-8.70
2022-12-15T03:11:23.957Z,-8.70
2022-12-15T03:14:12.341Z,-8.70
2022-12-15T03:17:00.856Z,-8.80
2022-12-15T03:19:50.565Z,-8.70
2022-12-15T03:22:39.649Z,-8.80
2022-12-15T03:25:27.980Z,-8.70
2022-12-15T03:28:16.294Z,-8.80
2022-12-15T03:31:05.300Z,-8.90
2022-12-15T03:33:53.607Z,-8.90
2022-12-15T03:36:43.345Z,-9.00
2022-12-15T03:39:31.682Z,-9.00
2022-12-15T03:42:40.018Z,-8.90
2022-12-15T03:45:29.989Z,-8.90
2022-12-15T03:48:18.324Z,-9.00
2022-12-15T03:51:06.781Z,-9.00
2022-12-15T03:53:56.475Z,-9.00
2022-12-15T03:56:44.805Z,-9.00
2022-12-15T03:59:33.123Z,-9.10
2022-12-15T04:02:21.706Z,-9.10
2022-12-15T04:05:15.875Z,-9.00
2022-12-15T04:08:04.520Z,-9.00
2022-12-15T04:10:54.201Z,-9.00
2022-12-15T04:13:42.571Z,-9.00
2022-12-15T04:16:31.150Z,-9.00
2022-12-15T04:19:36.971Z,-9.00
2022-12-15T04:22:25.324Z,-9.10
2022-12-15T04:25:34.286Z,-9.10
2022-12-15T04:28:42.121Z,-9.10
2022-12-15T04:31:51.579Z,-9.20
2022-12-15T04:34:57.336Z,-9.20
2022-12-15T04:38:03.412Z,-9.20
2022-12-15T04:41:09.361Z,-9.20
2022-12-15T04:44:16.724Z,-9.30
2022-12-15T04:47:22.738Z,-9.30
2022-12-15T04:50:28.838Z,-9.30
2022-12-15T04:53:37.035Z,-9.20
2022-12-15T04:56:42.891Z,-9.10
2022-12-15T04:59:50.259Z,-9.00
2022-12-15T05:02:55.877Z,-9.00
2022-12-15T05:06:01.502Z,-9.00
2022-12-15T05:09:07.361Z,-9.00
2022-12-15T05:12:13.459Z,-8.90
2022-12-15T05:15:20.706Z,-9.00
2022-12-15T05:18:26.639Z,-8.90
2022-12-15T05:21:32.606Z,-8.90
2022-12-15T05:24:38.512Z,-8.80
2022-12-15T05:27:44.376Z,-8.80
2022-12-15T05:30:51.532Z,-8.70
2022-12-15T05:33:39.915Z,-8.80
2022-12-15T05:36:28.240Z,-8.90
2022-12-15T05:39:16.674Z,-8.90
2022-12-15T05:42:05.185Z,-8.80
2022-12-15T05:44:53.617Z,-8.60
2022-12-15T05:47:43.380Z,-8.50
2022-12-15T05:50:31.992Z,-8.40
2022-12-15T05:53:20.302Z,-8.20
2022-12-15T05:56:11.490Z,-8.10
2022-12-15T05:59:00.193Z,-8.00
2022-12-15T06:01:48.684Z,-7.90
2022-12-15T06:04:38.432Z,-7.80
2022-12-15T06:07:26.866Z,-7.70
2022-12-15T06:10:15.447Z,-7.60
2022-12-15T06:13:04.290Z,-7.70
2022-12-15T06:15:57.651Z,-7.60
2022-12-15T06:18:49.984Z,-7.50
2022-12-15T06:21:40.005Z,-7.40
2022-12-15T06:24:28.521Z,-7.40
2022-12-15T06:27:16.883Z,-7.40
2022-12-15T06:30:06.137Z,-7.40
2022-12-15T06:32:54.879Z,-7.30
2022-12-15T06:35:43.212Z,-7.30
2022-12-15T06:38:33.040Z,-7.30
2022-12-15T06:41:22.554Z,-7.30
2022-12-15T06:44:14.779Z,-7.20
2022-12-15T06:47:03.933Z,-7.20
2022-12-15T06:49:52.380Z,-7.10
2022-12-15T06:52:41.675Z,-7.10
2022-12-15T06:55:31.433Z,-7.00
2022-12-15T06:58:19.774Z,-7.00
2022-12-15T07:01:09.034Z,-7.00
2022-12-15T07:03:59.993Z,-7.10
2022-12-15T07:06:49.180Z,-7.10
2022-12-15T07:09:37.520Z,-7.10
2022-12-15T07:12:27.459Z,-7.00
2022-12-15T07:15:15.960Z,-7.00
2022-12-15T07:18:04.838Z,-7.10
2022-12-15T07:20:53.263Z,-7.10
2022-12-15T07:23:57.963Z,-7.10
2022-12-15T07:26:48.927Z,-7.10
2022-12-15T07:29:38.922Z,-7.20
2022-12-15T07:32:27.312Z,-7.10
2022-12-15T07:35:15.650Z,-7.10
2022-12-15T07:38:08.071Z,-7.10
2022-12-15T07:40:56.445Z,-7.20
2022-12-15T07:43:45.459Z,-7.30
2022-12-15T07:46:35.316Z,-7.20
2022-12-15T07:49:23.808Z,-7.20
2022-12-15T07:52:14.053Z,-7.10
2022-12-15T07:55:02.382Z,-7.10
2022-12-15T07:57:51.045Z,-7.00
2022-12-15T08:00:43.806Z,-7.00
2022-12-15T08:03:37.980Z,-6.90
2022-12-15T08:06:26.881Z,-6.80
2022-12-15T08:09:15.373Z,-6.80
2022-12-15T08:12:04.026Z,-6.70
2022-12-15T08:14:52.372Z,-6.60
2022-12-15T08:17:41.284Z,-6.50
2022-12-15T08:20:31.593Z,-6.50
2022-12-15T08:23:20.077Z,-6.40
2022-12-15T08:26:10.183Z,-6.30
2022-12-15T08:29:17.434Z,-6.20
2022-12-15T08:32:07.912Z,-6.20
2022-12-15T08:34:56.336Z,-6.10
2022-12-15T08:37:46.421Z,-6.10
2022-12-15T08:40:34.758Z,-6.00
2022-12-15T08:43:23.457Z,-5.90
2022-12-15T08:46:13.022Z,-5.80
2022-12-15T08:49:02.168Z,-5.80
2022-12-15T08:51:51.247Z,-5.70
2022-12-15T08:54:40.904Z,-5.60
2022-12-15T08:57:29.216Z,-5.50
2022-12-15T09:00:19.143Z,-5.40
2022-12-15T09:03:07.479Z,-5.30
2022-12-15T09:05:57.596Z,-5.30
2022-12-15T09:08:48.542Z,-5.20
2022-12-15T09:11:41.174Z,-5.10
2022-12-15T09:14:29.840Z,-5.00
2022-12-15T09:17:18.360Z,-4.90
2022-12-15T09:20:08.350Z,-4.80
2022-12-15T09:22:58.466Z,-4.70
2022-12-15T09:25:47.387Z,-4.60
2022-12-15T09:28:38.088Z,-4.60
2022-12-15T09:31:29.340Z,-4.40
2022-12-15T09:34:17.774Z,-4.40
2022-12-15T09:37:06.200Z,-4.30
2022-12-15T09:39:54.569Z,-4.30
2022-12-15T09:43:04.894Z,-4.30
2022-12-15T09:46:09.396Z,-4.20
2022-12-15T09:49:01.107Z,-4.10
2022-12-15T09:51:54.745Z,-4.10
2022-12-15T09:54:45.147Z,-4.00
2022-12-15T09:57:38.674Z,-3.90
2022-12-15T10:00:32.109Z,-3.80
2022-12-15T10:03:46.034Z,-3.80
2022-12-15T10:06:38.392Z,-3.70
2022-12-15T10:09:28.942Z,-3.70
2022-12-15T10:12:22.058Z,-3.60
2022-12-15T10:15:21.253Z,-3.50
2022-12-15T10:18:20.798Z,-3.40
2022-12-15T10:21:14.193Z,-3.30
2022-12-15T10:24:31.620Z,-3.20
2022-12-15T10:27:43.777Z,-3.10
2022-12-15T10:30:32.345Z,-2.90
2022-12-15T10:33:24.236Z,-2.80
2022-12-15T10:36:16.475Z,-2.70
2022-12-15T10:39:05.202Z,-2.60
2022-12-15T10:42:13.320Z,-2.50
2022-12-15T10:45:01.767Z,-2.50
2022-12-15T10:48:02.424Z,-2.40
2022-12-15T10:50:50.711Z,-2.40
2022-12-15T10:53:44.397Z,-2.30
2022-12-15T10:56:50.230Z,-2.20
2022-12-15T10:59:39.529Z,-2.10
2022-12-15T11:02:36.840Z,-2.00
2022-12-15T11:05:25.699Z,-1.90
2022-12-15T11:08:17.048Z,-1.90
2022-12-15T11:11:45.162Z,-1.80
2022-12-15T11:14:45.646Z,-1.70
2022-12-15T11:17:43.023Z,-1.60
2022-12-15T11:20:36.139Z,-1.50
2022-12-15T11:23:31.840Z,-1.40
2022-12-15T11:26:58.928Z,-1.30
2022-12-15T11:30:00.261Z,-1.20
2022-12-15T11:32:50.183Z,-1.10
2022-12-15T11:35:55.071Z,-1.00
2022-12-15T11:38:49.035Z,-0.90
2022-12-15T11:41:45.757Z,-0.90
2022-12-15T11:44:45.898Z,-0.90
2022-12-15T11:47:44.991Z,-0.80
2022-12-15T11:50:42.502Z,-0.80
2022-12-15T11:54:01.778Z,-0.70
2022-12-15T11:56:57.577Z,-0.50
2022-12-15T12:00:04.642Z,-0.50
2022-12-15T12:03:04.957Z,-0.40
2022-12-15T12:06:04.016Z,-0.30
2022-12-15T12:09:09.963Z,-0.30
2022-12-15T12:12:05.870Z,-0.20
2022-12-15T12:15:08.408Z,-0.10
2022-12-15T12:18:04.357Z,-0.10
2022-12-15T12:20:59.298Z,0.00
2022-12-15T12:23:55.939Z,0.10
2022-12-15T12:26:48.440Z,0.10
2022-12-15T12:29:43.648Z,0.20
2022-12-15T12:32:40.512Z,0.20
2022-12-15T12:35:38.589Z,0.20
2022-12-15T12:38:32.779Z,0.30
2022-12-15T12:41:27.371Z,0.30
2022-12-15T12:44:25.540Z,0.40
2022-12-15T12:47:19.179Z,0.50
2022-12-15T12:50:15.575Z,0.60
2022-12-15T12:53:06.040Z,0.70
2022-12-15T12:55:54.520Z,0.70
2022-12-15T12:58:42.919Z,0.70
2022-12-15T13:01:33.469Z,0.80
2022-12-15T13:04:40.846Z,0.90
2022-12-15T13:07:31.826Z,1.00
2022-12-15T13:10:23.363Z,0.90
2022-12-15T13:13:37.383Z,0.90
2022-12-15T13:16:27.846Z,1.00
2022-12-15T13:19:16.466Z,1.00
2022-12-15T13:22:04.924Z,1.10
2022-12-15T13:24:53.406Z,1.10
2022-12-15T13:27:43.971Z,1.20
2022-12-15T13:30:32.386Z,1.30
2022-12-15T13:33:20.876Z,1.30
2022-12-15T13:36:09.155Z,1.30
2022-12-15T13:38:57.563Z,1.10
2022-12-15T13:42:34.100Z,1.00
2022-12-15T13:45:51.846Z,1.00
2022-12-15T13:48:42.811Z,0.80
2022-12-15T13:51:33.894Z,0.80
2022-12-15T13:54:26.103Z,0.70
2022-12-15T13:57:18.265Z,0.80
2022-12-15T14:00:18.406Z,0.70
2022-12-15T14:03:12.023Z,0.70
2022-12-15T14:06:01.355Z,0.70
2022-12-15T14:08:50.911Z,0.70
2022-12-15T14:11:58.361Z,0.70
2022-12-15T14:14:49.607Z,0.60
2022-12-15T14:17:37.818Z,0.50
2022-12-15T14:20:30.674Z,0.50
2022-12-15T14:23:20.636Z,0.90
2022-12-15T14:26:11.267Z,0.90
2022-12-15T14:29:02.965Z,1.00
2022-12-15T14:31:54.287Z,0.90
2022-12-15T14:34:43.804Z,0.70
2022-12-15T14:37:35.019Z,0.50
2022-12-15T14:40:28.663Z,0.30
2022-12-15T14:43:21.500Z,0.10
2022-12-15T14:46:12.321Z,0.00
2022-12-15T14:49:03.835Z,-0.20
2022-12-15T14:51:57.900Z,-0.30
2022-12-15T14:54:57.240Z,-0.30
2022-12-15T14:57:47.514Z,-0.40
2022-12-15T15:00:38.216Z,-0.50
2022-12-15T15:03:35.625Z,-0.60
2022-12-15T15:06:30.902Z,-0.70
2022-12-15T15:09:25.826Z,-0.90
2022-12-15T15:12:21.216Z,-1.00
2022-12-15T15:15:15.320Z,-1.00
2022-12-15T15:18:03.651Z,-1.10
2022-12-15T15:20:56.679Z,-1.30
2022-12-15T15:23:59.242Z,-1.40
2022-12-15T15:26:47.607Z,-1.50
2022-12-15T15:29:41.704Z,-1.40
2022-12-15T15:32:30.237Z,-1.40
2022-12-15T15:35:18.915Z,-1.50
2022-12-15T15:38:16.615Z,-1.60
2022-12-15T15:41:16.707Z,-1.70
2022-12-15T15:44:13.202Z,-1.80
2022-12-15T15:47:02.859Z,-1.80
2022-12-15T15:49:51.955Z,-1.90
2022-12-15T15:52:40.250Z,-1.90
2022-12-15T15:55:36.327Z,-1.90
2022-12-15T15:58:27.839Z,-1.90
2022-12-15T16:01:16.264Z,-2.00
2022-12-15T16:04:07.238Z,-2.10
2022-12-15T16:06:55.784Z,-2.10
2022-12-15T16:09:44.360Z,-2.20
2022-12-15T16:12:37.335Z,-2.20
2022-12-15T16:15:29.433Z,-2.20
2022-12-15T16:18:17.947Z,-2.20
2022-12-15T16:21:11.210Z,-2.30
2022-12-15T16:24:00.265Z,-2.40
2022-12-15T16:26:50.882Z,-2.40
2022-12-15T16:29:39.174Z,-2.50
2022-12-15T16:32:27.464Z,-2.50
2022-12-15T16:35:15.913Z,-2.50
2022-12-15T16:38:06.216Z,-2.50
2022-12-15T16:40:56.137Z,-2.60
2022-12-15T16:43:48.160Z,-2.60
2022-12-15T16:46:36.716Z,-2.70
2022-12-15T16:49:25.111Z,-2.70
2022-12-15T16:52:19.959Z,-2.70
2022-12-15T16:55:19.518Z,-2.70
2022-12-15T16:58:13.759Z,-2.70
2022-12-15T17:01:02.696Z,-2.70
2022-12-15T17:03:51.148Z,-2.80
2022-12-15T17:06:39.808Z,-2.80
2022-12-15T17:09:28.193Z,-2.80
2022-12-15T17:12:19.321Z,-2.90
2022-12-15T17:15:17.505Z,-3.00
2022-12-15T17:18:06.044Z,-3.00
2022-12-15T17:21:02.616Z,-3.10
2022-12-15T17:23:54.039Z,-3.10
2022-12-15T17:26:51.620Z,-3.20
2022-12-15T17:29:43.060Z,-3.20
2022-12-15T17:32:31.390Z,-3.20
2022-12-15T17:35:19.975Z,-3.20
2022-12-15T17:38:13.798Z,-3.30
2022-12-15T17:41:02.477Z,-3.30
2022-12-15T17:44:09.822Z,-3.40
2022-12-15T17:47:01.124Z,-3.40
2022-12-15T17:49:49.526Z,-3.40
2022-12-15T17:52:38.083Z,-3.40
2022-12-15T17:55:34.856Z,-3.40
2022-12-15T17:58:25.566Z,-3.50
2022-12-15T18:01:15.150Z,-3.50
2022-12-15T18:04:05.075Z,-3.50
2022-12-15T18:07:00.957Z,-3.60
2022-12-15T18:09:52.103Z,-3.60
2022-12-15T18:12:40.439Z,-3.80
2022-12-15T18:15:33.270Z,-3.90
2022-12-15T18:18:23.593Z,-3.90
2022-12-15T18:21:16.540Z,-3.90
2022-12-15T18:24:05.117Z,-3.90
2022-12-15T18:26:53.738Z,-3.90
2022-12-15T18:29:42.054Z,-3.90
2022-12-15T18:32:31.270Z,-4.00
2022-12-15T18:35:23.580Z,-4.00
2022-12-15T18:38:18.912Z,-4.00
2022-12-15T18:41:07.695Z,-4.00
2022-12-15T18:43:58.648Z,-4.00
2022-12-15T18:46:48.203Z,-4.00
2022-12-15T18:49:36.813Z,-4.00
2022-12-15T18:52:31.444Z,-4.00
2022-12-15T18:55:23.740Z,-4.00
2022-12-15T18:58:21.149Z,-3.90
2022-12-15T19:01:10.675Z,-3.90
2022-12-15T19:03:59.110Z,-4.00
2022-12-15T19:06:47.431Z,-4.10
2022-12-15T19:09:35.992Z,-4.10
2022-12-15T19:12:25.933Z,-4.10
2022-12-15T19:15:17.292Z,-4.10
2022-12-15T19:18:23.281Z,-4.20
2022-12-15T19:21:43.655Z,-4.30
2022-12-15T19:24:50.110Z,-4.30
2022-12-15T19:27:39.782Z,-4.40
2022-12-15T19:30:31.004Z,-4.40
2022-12-15T19:33:20.509Z,-4.50
2022-12-15T19:36:16.164Z,-4.60
2022-12-15T19:39:05.660Z,-4.60
2022-12-15T19:41:57.007Z,-4.60
2022-12-15T19:44:46.824Z,-4.70
2022-12-15T19:47:35.405Z,-4.80
2022-12-15T19:50:25.909Z,-4.80
2022-12-15T19:53:24.307Z,-4.90
2022-12-15T19:56:16.685Z,-4.90
2022-12-15T19:59:05.040Z,-5.00
2022-12-15T20:01:54.860Z,-5.10
2022-12-15T20:04:43.393Z,-5.10
2022-12-15T20:07:32.027Z,-5.20
2022-12-15T20:10:27.539Z,-5.20
2022-12-15T20:13:18.597Z,-5.20
2022-12-15T20:16:07.259Z,-5.20
2022-12-15T20:18:57.175Z,-5.30
2022-12-15T20:21:45.574Z,-5.30
2022-12-15T20:24:34.804Z,-5.30
2022-12-15T20:27:23.156Z,-5.40
2022-12-15T20:30:19.746Z,-5.40
2022-12-15T20:33:08.187Z,-5.40
2022-12-15T20:35:57.840Z,-5.50
2022-12-15T20:38:46.995Z,-5.60
2022-12-15T20:41:35.298Z,-5.70
2022-12-15T20:44:24.128Z,-5.60
2022-12-15T20:47:20.461Z,-5.60
2022-12-15T20:50:23.291Z,-5.60
2022-12-15T20:53:18.293Z,-5.60
2022-12-15T20:56:07.247Z,-5.60
2022-12-15T20:58:57.248Z,-5.70
2022-12-15T21:01:46.552Z,-5.70
2022-12-15T21:04:35.140Z,-5.80
2022-12-15T21:07:23.477Z,-5.80
2022-12-15T21:10:15.605Z,-5.80
2022-12-15T21:13:03.894Z,-5.90
2022-12-15T21:15:52.564Z,-5.90
2022-12-15T21:19:18.182Z,-5.80
2022-12-15T21:21:52.264Z,-5.90
2022-12-15T21:24:43.700Z,-5.90
2022-12-15T21:27:33.392Z,-5.90
2022-12-15T21:30:25.724Z,-5.90
2022-12-15T21:33:14.195Z,-5.90
2022-12-15T21:36:02.672Z,-5.90
2022-12-15T21:38:52.925Z,-5.90
2022-12-15T21:41:44.551Z,-6.00
2022-12-15T21:44:34.259Z,-6.10
2022-12-15T21:47:25.728Z,-6.20
2022-12-15T21:50:13.156Z,-6.10
2022-12-15T21:53:02.159Z,-6.10
2022-12-15T21:55:50.509Z,-6.10
2022-12-15T21:58:38.832Z,-6.10
2022-12-15T22:01:31.583Z,-6.10
2022-12-15T22:04:24.004Z,-6.10
2022-12-15T22:07:16.922Z,-6.10
2022-12-15T22:10:06.108Z,-6.20
2022-12-15T22:12:59.627Z,-6.20
2022-12-15T22:15:50.707Z,-6.20
2022-12-15T22:18:41.402Z,-6.20
2022-12-15T22:21:29.999Z,-6.20
2022-12-15T22:24:19.039Z,-6.30
2022-12-15T22:27:15.018Z,-6.40
2022-12-15T22:30:03.421Z,-6.40
2022-12-15T22:32:52.022Z,-6.50
2022-12-15T22:35:43.375Z,-6.60
2022-12-15T22:38:32.011Z,-6.70
2022-12-15T22:41:23.257Z,-6.70
2022-12-15T22:44:17.417Z,-6.60
2022-12-15T22:47:05.837Z,-6.60
2022-12-15T22:49:54.255Z,-6.60
2022-12-15T22:52:46.287Z,-6.60
2022-12-15T22:55:34.667Z,-6.60
2022-12-15T22:58:27.872Z,-6.70
2022-12-15T23:01:16.186Z,-6.70
2022-12-15T23:04:06.444Z,-6.60
2022-12-15T23:06:54.990Z,-6.70
2022-12-15T23:09:44.723Z,-6.70
2022-12-15T23:12:32.043Z,-6.70
2022-12-15T23:15:37.835Z,-6.70
2022-12-15T23:18:26.228Z,-6.80
2022-12-15T23:21:14.558Z,-6.80
2022-12-15T23:24:02.979Z,-6.70
2022-12-15T23:26:52.651Z,-6.70
2022-12-15T23:29:41.003Z,-6.70
2022-12-15T23:32:29.351Z,-6.70
2022-12-15T23:35:17.677Z,-6.70
2022-12-15T23:38:06.071Z,-6.70
2022-12-15T23:40:56.835Z,-6.70
2022-12-15T23:43:46.680Z,-6.70
2022-12-15T23:46:35.088Z,-6.70
2022-12-15T23:49:23.474Z,-6.70
2022-12-15T23:52:11.855Z,-6.80
2022-12-15T23:55:00.183Z,-6.80
2022-12-15T23:57:48.475Z,-6.90
